Aspen Park, Colorado
Current Conditions -  °F | °C
As of 10:53 PM on Saturday 22 Nov 2014 (Local Time) from KAPA Reporting Station
Broken Clouds Broken Clouds  
Wind Chill: 36°   Ceiling: 20000
Heat Index: 41°   Visibility: 10mi
Dew Point: 24°   Wind: 7mph
Humidity: 51%   Direction: 180°S
Pressure: 29.57"   Gusts: NA
Location:  39.4975°N, 105.289°W
Report Text: KAPA 230553Z 18006KT 10SM FEW100 SCT140 BKN200 05/M04 A2957 RMK AO2 SLP987 T00501044 10111 20028 55013
Loading
Personal Weather Stations






























Interactive Weather Map New forecast layout! Learn more

10-Day Weather Forecast

Advertisements
Track Severe Weather on mobile